North Apollo, Pennsylvania
Current Conditions -  °F | °C
As of 11:15 AM on Tuesday 27 Jan 2015 (Local Time) from KLBE Reporting Station
Light Snow Light Snow  
Wind Chill: 11°   Ceiling: 1700
Heat Index: 21°   Visibility: 6mi
Dew Point: 18°   Wind: 9mph
Humidity: 86%   Direction: 290°WNW
Pressure: 29.93"   Gusts: NA
Location:  40.6°N, 79.56°W
Report Text: KLBE 271615Z 29008KT 6SM -SN OVC017 M06/M08 A2993
Loading
Personal Weather Stations






























Interactive Weather Map New forecast layout! Learn more

10-Day Weather Forecast

Advertisements
Track Severe Weather on mobile